sensor_id;sensor_type;location;lat;lon;timestamp;P1;durP1;ratioP1;P2;durP2;ratioP2
39176;SDS011;24904;52.208;21.192;2023-02-28T00:00:42;42.60;;;20.30;;
39176;SDS011;24904;52.208;21.192;2023-02-28T00:05:47;51.20;;;23.40;;
39176;SDS011;24904;52.208;21.192;2023-02-28T00:10:52;42.60;;;22.80;;
39176;SDS011;24904;52.208;21.192;2023-02-28T00:16:01;47.20;;;22.60;;
39176;SDS011;24904;52.208;21.192;2023-02-28T00:21:08;39.30;;;21.00;;
39176;SDS011;24904;52.208;21.192;2023-02-28T00:26:14;38.50;;;20.40;;
39176;SDS011;24904;52.208;21.192;2023-02-28T00:31:20;37.20;;;20.70;;
39176;SDS011;24904;52.208;21.192;2023-02-28T00:36:26;36.60;;;19.30;;
39176;SDS011;24904;52.208;21.192;2023-02-28T00:41:31;33.60;;;18.10;;
39176;SDS011;24904;52.208;21.192;2023-02-28T00:46:36;38.60;;;18.50;;
39176;SDS011;24904;52.208;21.192;2023-02-28T00:51:42;36.70;;;18.40;;
39176;SDS011;24904;52.208;21.192;2023-02-28T00:56:47;32.90;;;16.80;;
39176;SDS011;24904;52.208;21.192;2023-02-28T01:01:52;35.30;;;17.40;;
39176;SDS011;24904;52.208;21.192;2023-02-28T01:06:58;31.70;;;16.40;;
39176;SDS011;24904;52.208;21.192;2023-02-28T01:12:04;29.20;;;15.90;;
39176;SDS011;24904;52.208;21.192;2023-02-28T01:17:11;35.00;;;17.30;;
39176;SDS011;24904;52.208;21.192;2023-02-28T01:22:16;35.50;;;17.50;;
39176;SDS011;24904;52.208;21.192;2023-02-28T01:27:21;34.90;;;19.00;;
39176;SDS011;24904;52.208;21.192;2023-02-28T01:32:28;39.30;;;19.00;;
39176;SDS011;24904;52.208;21.192;2023-02-28T01:37:33;35.80;;;19.40;;
39176;SDS011;24904;52.208;21.192;2023-02-28T01:42:38;38.20;;;21.10;;
39176;SDS011;24904;52.208;21.192;2023-02-28T01:47:44;41.80;;;20.50;;
39176;SDS011;24904;52.208;21.192;2023-02-28T01:52:51;41.30;;;18.50;;
39176;SDS011;24904;52.208;21.192;2023-02-28T01:58:02;31.80;;;18.70;;
39176;SDS011;24904;52.208;21.192;2023-02-28T02:03:10;32.80;;;17.90;;
39176;SDS011;24904;52.208;21.192;2023-02-28T02:08:21;44.20;;;20.40;;
39176;SDS011;24904;52.208;21.192;2023-02-28T02:13:40;35.60;;;17.70;;
39176;SDS011;24904;52.208;21.192;2023-02-28T02:19:14;40.90;;;20.20;;
39176;SDS011;24904;52.208;21.192;2023-02-28T02:24:42;37.00;;;19.10;;
39176;SDS011;24904;52.208;21.192;2023-02-28T02:35:37;29.10;;;18.00;;
39176;SDS011;24904;52.208;21.192;2023-02-28T02:40:57;41.10;;;19.10;;
39176;SDS011;24904;52.208;21.192;2023-02-28T02:46:10;45.40;;;22.50;;
39176;SDS011;24904;52.208;21.192;2023-02-28T02:51:20;48.50;;;22.00;;
39176;SDS011;24904;52.208;21.192;2023-02-28T02:56:28;41.10;;;21.00;;
39176;SDS011;24904;52.208;21.192;2023-02-28T03:01:36;40.40;;;18.80;;
39176;SDS011;24904;52.208;21.192;2023-02-28T03:06:43;40.00;;;20.10;;
39176;SDS011;24904;52.208;21.192;2023-02-28T03:11:48;41.50;;;20.40;;
39176;SDS011;24904;52.208;21.192;2023-02-28T03:16:58;40.40;;;20.50;;
39176;SDS011;24904;52.208;21.192;2023-02-28T03:27:55;45.30;;;22.70;;
39176;SDS011;24904;52.208;21.192;2023-02-28T03:33:07;41.30;;;21.40;;
39176;SDS011;24904;52.208;21.192;2023-02-28T03:38:16;43.60;;;22.90;;
39176;SDS011;24904;52.208;21.192;2023-02-28T03:43:26;52.20;;;26.30;;
39176;SDS011;24904;52.208;21.192;2023-02-28T03:48:37;61.10;;;27.70;;
39176;SDS011;24904;52.208;21.192;2023-02-28T03:53:45;53.90;;;26.40;;
39176;SDS011;24904;52.208;21.192;2023-02-28T03:58:57;53.50;;;24.60;;
39176;SDS011;24904;52.208;21.192;2023-02-28T04:04:05;53.80;;;27.70;;
39176;SDS011;24904;52.208;21.192;2023-02-28T04:09:12;56.70;;;28.40;;
39176;SDS011;24904;52.208;21.192;2023-02-28T04:14:18;59.40;;;28.20;;
39176;SDS011;24904;52.208;21.192;2023-02-28T04:19:23;58.20;;;27.30;;
39176;SDS011;24904;52.208;21.192;2023-02-28T04:24:28;58.50;;;28.60;;
39176;SDS011;24904;52.208;21.192;2023-02-28T04:29:33;55.50;;;28.10;;
39176;SDS011;24904;52.208;21.192;2023-02-28T04:34:39;53.60;;;29.00;;
39176;SDS011;24904;52.208;21.192;2023-02-28T04:39:44;57.80;;;27.50;;
39176;SDS011;24904;52.208;21.192;2023-02-28T04:44:49;45.20;;;23.50;;
39176;SDS011;24904;52.208;21.192;2023-02-28T04:49:54;58.10;;;26.10;;
39176;SDS011;24904;52.208;21.192;2023-02-28T04:54:59;51.50;;;25.40;;
39176;SDS011;24904;52.208;21.192;2023-02-28T05:00:05;45.70;;;22.20;;
39176;SDS011;24904;52.208;21.192;2023-02-28T05:05:13;49.30;;;25.70;;
39176;SDS011;24904;52.208;21.192;2023-02-28T05:10:20;49.80;;;25.50;;
39176;SDS011;24904;52.208;21.192;2023-02-28T05:15:25;41.30;;;21.90;;
39176;SDS011;24904;52.208;21.192;2023-02-28T05:20:31;45.60;;;23.50;;
39176;SDS011;24904;52.208;21.192;2023-02-28T05:25:36;56.10;;;25.30;;
39176;SDS011;24904;52.208;21.192;2023-02-28T05:30:42;54.70;;;26.20;;
39176;SDS011;24904;52.208;21.192;2023-02-28T05:35:47;57.30;;;27.00;;
39176;SDS011;24904;52.208;21.192;2023-02-28T05:40:52;53.90;;;25.80;;
39176;SDS011;24904;52.208;21.192;2023-02-28T05:45:58;48.90;;;23.50;;
39176;SDS011;24904;52.208;21.192;2023-02-28T05:51:05;48.90;;;23.60;;
39176;SDS011;24904;52.208;21.192;2023-02-28T05:56:11;50.80;;;25.40;;
39176;SDS011;24904;52.208;21.192;2023-02-28T06:01:24;50.30;;;25.40;;
39176;SDS011;24904;52.208;21.192;2023-02-28T06:11:41;57.10;;;24.60;;
39176;SDS011;24904;52.208;21.192;2023-02-28T06:16:46;52.90;;;26.00;;
39176;SDS011;24904;52.208;21.192;2023-02-28T06:21:52;61.10;;;29.30;;
39176;SDS011;24904;52.208;21.192;2023-02-28T06:26:59;56.70;;;28.70;;
39176;SDS011;24904;52.208;21.192;2023-02-28T06:32:07;65.70;;;30.90;;
39176;SDS011;24904;52.208;21.192;2023-02-28T06:37:12;65.30;;;32.20;;
39176;SDS011;24904;52.208;21.192;2023-02-28T06:42:17;70.50;;;34.10;;
39176;SDS011;24904;52.208;21.192;2023-02-28T06:47:23;79.60;;;35.40;;
39176;SDS011;24904;52.208;21.192;2023-02-28T06:52:28;69.00;;;33.70;;
39176;SDS011;24904;52.208;21.192;2023-02-28T06:57:34;69.90;;;33.90;;
39176;SDS011;24904;52.208;21.192;2023-02-28T07:02:40;65.40;;;31.90;;
39176;SDS011;24904;52.208;21.192;2023-02-28T07:07:45;67.70;;;34.20;;
39176;SDS011;24904;52.208;21.192;2023-02-28T07:12:50;64.70;;;32.10;;
39176;SDS011;24904;52.208;21.192;2023-02-28T07:17:55;61.40;;;29.30;;
39176;SDS011;24904;52.208;21.192;2023-02-28T07:23:00;51.70;;;27.10;;
39176;SDS011;24904;52.208;21.192;2023-02-28T07:28:06;42.50;;;18.70;;
39176;SDS011;24904;52.208;21.192;2023-02-28T07:33:11;30.20;;;15.40;;
39176;SDS011;24904;52.208;21.192;2023-02-28T07:38:17;20.30;;;10.50;;
39176;SDS011;24904;52.208;21.192;2023-02-28T07:43:23;21.50;;;10.80;;
39176;SDS011;24904;52.208;21.192;2023-02-28T07:48:28;14.90;;;8.00;;
39176;SDS011;24904;52.208;21.192;2023-02-28T07:53:33;12.00;;;6.50;;
39176;SDS011;24904;52.208;21.192;2023-02-28T07:58:38;17.30;;;7.20;;
39176;SDS011;24904;52.208;21.192;2023-02-28T08:03:45;10.40;;;6.10;;
39176;SDS011;24904;52.208;21.192;2023-02-28T08:08:50;10.10;;;5.50;;
39176;SDS011;24904;52.208;21.192;2023-02-28T08:13:57;14.80;;;6.20;;
39176;SDS011;24904;52.208;21.192;2023-02-28T08:19:02;12.20;;;6.10;;
39176;SDS011;24904;52.208;21.192;2023-02-28T08:24:08;10.40;;;6.70;;
39176;SDS011;24904;52.208;21.192;2023-02-28T08:29:13;9.60;;;5.70;;
39176;SDS011;24904;52.208;21.192;2023-02-28T08:34:18;12.90;;;6.00;;
39176;SDS011;24904;52.208;21.192;2023-02-28T08:39:25;11.00;;;6.90;;
39176;SDS011;24904;52.208;21.192;2023-02-28T08:44:30;10.00;;;5.60;;
39176;SDS011;24904;52.208;21.192;2023-02-28T08:49:36;11.00;;;6.00;;
39176;SDS011;24904;52.208;21.192;2023-02-28T08:54:41;12.70;;;6.00;;
39176;SDS011;24904;52.208;21.192;2023-02-28T08:59:46;10.90;;;6.10;;
39176;SDS011;24904;52.208;21.192;2023-02-28T09:04:51;16.30;;;6.50;;
39176;SDS011;24904;52.208;21.192;2023-02-28T09:09:57;11.70;;;6.20;;
39176;SDS011;24904;52.208;21.192;2023-02-28T09:15:02;12.00;;;7.10;;
39176;SDS011;24904;52.208;21.192;2023-02-28T09:20:09;10.50;;;6.20;;
39176;SDS011;24904;52.208;21.192;2023-02-28T09:25:15;11.10;;;7.30;;
39176;SDS011;24904;52.208;21.192;2023-02-28T09:30:20;11.30;;;6.30;;
39176;SDS011;24904;52.208;21.192;2023-02-28T09:35:26;20.40;;;7.70;;
39176;SDS011;24904;52.208;21.192;2023-02-28T09:40:34;19.20;;;6.90;;
39176;SDS011;24904;52.208;21.192;2023-02-28T09:45:52;12.20;;;7.70;;
39176;SDS011;24904;52.208;21.192;2023-02-28T09:51:02;13.10;;;7.10;;
39176;SDS011;24904;52.208;21.192;2023-02-28T09:56:15;11.30;;;7.10;;
39176;SDS011;24904;52.208;21.192;2023-02-28T10:01:30;13.90;;;7.50;;
39176;SDS011;24904;52.208;21.192;2023-02-28T10:06:41;14.90;;;7.90;;
39176;SDS011;24904;52.208;21.192;2023-02-28T10:11:49;10.40;;;6.60;;
39176;SDS011;24904;52.208;21.192;2023-02-28T10:16:58;12.60;;;7.40;;
39176;SDS011;24904;52.208;21.192;2023-02-28T10:22:09;12.20;;;7.20;;
39176;SDS011;24904;52.208;21.192;2023-02-28T10:27:18;10.50;;;7.00;;
39176;SDS011;24904;52.208;21.192;2023-02-28T10:32:25;11.30;;;6.70;;
39176;SDS011;24904;52.208;21.192;2023-02-28T10:37:33;13.50;;;7.70;;
39176;SDS011;24904;52.208;21.192;2023-02-28T10:42:40;15.10;;;7.90;;
39176;SDS011;24904;52.208;21.192;2023-02-28T10:47:58;11.50;;;7.90;;
39176;SDS011;24904;52.208;21.192;2023-02-28T10:53:14;16.40;;;9.00;;
39176;SDS011;24904;52.208;21.192;2023-02-28T10:58:28;13.70;;;8.30;;
39176;SDS011;24904;52.208;21.192;2023-02-28T11:03:45;13.10;;;7.20;;
39176;SDS011;24904;52.208;21.192;2023-02-28T11:08:52;19.00;;;8.90;;
39176;SDS011;24904;52.208;21.192;2023-02-28T11:14:03;14.00;;;7.40;;
39176;SDS011;24904;52.208;21.192;2023-02-28T11:19:15;14.80;;;8.00;;
39176;SDS011;24904;52.208;21.192;2023-02-28T11:24:27;14.70;;;8.80;;
39176;SDS011;24904;52.208;21.192;2023-02-28T11:29:34;17.10;;;8.00;;
39176;SDS011;24904;52.208;21.192;2023-02-28T11:35:01;18.10;;;8.30;;
39176;SDS011;24904;52.208;21.192;2023-02-28T11:40:18;11.80;;;7.80;;
39176;SDS011;24904;52.208;21.192;2023-02-28T11:45:34;15.90;;;8.90;;
39176;SDS011;24904;52.208;21.192;2023-02-28T11:50:54;11.20;;;8.20;;
39176;SDS011;24904;52.208;21.192;2023-02-28T11:56:08;16.30;;;9.50;;
39176;SDS011;24904;52.208;21.192;2023-02-28T12:01:23;12.30;;;8.70;;
39176;SDS011;24904;52.208;21.192;2023-02-28T12:06:43;12.70;;;8.80;;
39176;SDS011;24904;52.208;21.192;2023-02-28T12:11:54;14.20;;;9.20;;
39176;SDS011;24904;52.208;21.192;2023-02-28T12:17:05;17.20;;;8.90;;
39176;SDS011;24904;52.208;21.192;2023-02-28T12:22:22;20.60;;;9.20;;
39176;SDS011;24904;52.208;21.192;2023-02-28T12:27:41;19.40;;;10.60;;
39176;SDS011;24904;52.208;21.192;2023-02-28T12:32:49;20.40;;;10.30;;
39176;SDS011;24904;52.208;21.192;2023-02-28T12:38:01;17.00;;;9.00;;
39176;SDS011;24904;52.208;21.192;2023-02-28T12:43:12;14.40;;;8.80;;
39176;SDS011;24904;52.208;21.192;2023-02-28T12:48:21;13.00;;;8.30;;
39176;SDS011;24904;52.208;21.192;2023-02-28T12:53:35;16.40;;;9.80;;
39176;SDS011;24904;52.208;21.192;2023-02-28T12:58:54;15.10;;;9.60;;
39176;SDS011;24904;52.208;21.192;2023-02-28T13:04:11;20.70;;;9.50;;
39176;SDS011;24904;52.208;21.192;2023-02-28T13:09:34;15.20;;;10.20;;
39176;SDS011;24904;52.208;21.192;2023-02-28T13:14:40;18.80;;;9.60;;
39176;SDS011;24904;52.208;21.192;2023-02-28T13:19:58;14.50;;;9.20;;
39176;SDS011;24904;52.208;21.192;2023-02-28T13:25:12;16.30;;;10.20;;
39176;SDS011;24904;52.208;21.192;2023-02-28T13:31:06;17.60;;;10.50;;
39176;SDS011;24904;52.208;21.192;2023-02-28T13:36:21;18.70;;;9.40;;
39176;SDS011;24904;52.208;21.192;2023-02-28T13:41:44;19.50;;;10.10;;
39176;SDS011;24904;52.208;21.192;2023-02-28T13:52:23;15.50;;;9.30;;
39176;SDS011;24904;52.208;21.192;2023-02-28T13:57:32;18.50;;;10.60;;
39176;SDS011;24904;52.208;21.192;2023-02-28T14:02:51;17.20;;;10.50;;
39176;SDS011;24904;52.208;21.192;2023-02-28T14:08:15;17.10;;;8.90;;
39176;SDS011;24904;52.208;21.192;2023-02-28T14:13:41;20.70;;;10.20;;
39176;SDS011;24904;52.208;21.192;2023-02-28T14:18:49;18.10;;;10.20;;
39176;SDS011;24904;52.208;21.192;2023-02-28T14:24:19;16.30;;;9.60;;
39176;SDS011;24904;52.208;21.192;2023-02-28T14:29:51;28.30;;;9.50;;
39176;SDS011;24904;52.208;21.192;2023-02-28T14:35:39;15.00;;;8.50;;
39176;SDS011;24904;52.208;21.192;2023-02-28T14:40:54;30.20;;;10.40;;
39176;SDS011;24904;52.208;21.192;2023-02-28T14:46:01;17.50;;;9.30;;
39176;SDS011;24904;52.208;21.192;2023-02-28T14:51:09;16.10;;;8.90;;
39176;SDS011;24904;52.208;21.192;2023-02-28T14:56:19;17.30;;;9.90;;
39176;SDS011;24904;52.208;21.192;2023-02-28T15:01:27;23.50;;;9.50;;
39176;SDS011;24904;52.208;21.192;2023-02-28T15:06:33;20.00;;;9.50;;
39176;SDS011;24904;52.208;21.192;2023-02-28T15:11:38;20.30;;;10.90;;
39176;SDS011;24904;52.208;21.192;2023-02-28T15:16:44;14.90;;;10.00;;
39176;SDS011;24904;52.208;21.192;2023-02-28T15:21:54;24.90;;;10.70;;
39176;SDS011;24904;52.208;21.192;2023-02-28T15:27:04;19.60;;;9.50;;
39176;SDS011;24904;52.208;21.192;2023-02-28T15:32:27;18.90;;;9.70;;
39176;SDS011;24904;52.208;21.192;2023-02-28T15:37:40;14.10;;;9.00;;
39176;SDS011;24904;52.208;21.192;2023-02-28T15:43:02;19.30;;;9.90;;
39176;SDS011;24904;52.208;21.192;2023-02-28T15:56:23;21.10;;;10.80;;
39176;SDS011;24904;52.208;21.192;2023-02-28T16:01:31;14.40;;;9.10;;
39176;SDS011;24904;52.208;21.192;2023-02-28T16:06:38;16.90;;;9.50;;
39176;SDS011;24904;52.208;21.192;2023-02-28T16:11:45;19.60;;;9.50;;
39176;SDS011;24904;52.208;21.192;2023-02-28T16:16:52;26.80;;;9.80;;
39176;SDS011;24904;52.208;21.192;2023-02-28T16:21:59;17.60;;;9.30;;
39176;SDS011;24904;52.208;21.192;2023-02-28T16:27:04;30.10;;;8.50;;
39176;SDS011;24904;52.208;21.192;2023-02-28T16:32:10;22.90;;;9.80;;
39176;SDS011;24904;52.208;21.192;2023-02-28T16:37:17;22.40;;;9.40;;
39176;SDS011;24904;52.208;21.192;2023-02-28T16:42:23;21.10;;;9.10;;
39176;SDS011;24904;52.208;21.192;2023-02-28T16:47:31;25.40;;;9.40;;
39176;SDS011;24904;52.208;21.192;2023-02-28T16:52:36;22.90;;;10.50;;
39176;SDS011;24904;52.208;21.192;2023-02-28T16:57:41;29.60;;;11.90;;
39176;SDS011;24904;52.208;21.192;2023-02-28T17:02:47;24.40;;;11.00;;
39176;SDS011;24904;52.208;21.192;2023-02-28T17:07:53;20.70;;;11.10;;
39176;SDS011;24904;52.208;21.192;2023-02-28T17:12:58;20.10;;;10.10;;
39176;SDS011;24904;52.208;21.192;2023-02-28T17:18:03;22.10;;;11.00;;
39176;SDS011;24904;52.208;21.192;2023-02-28T17:23:10;33.00;;;14.40;;
39176;SDS011;24904;52.208;21.192;2023-02-28T17:28:15;24.50;;;11.60;;
39176;SDS011;24904;52.208;21.192;2023-02-28T17:33:20;22.50;;;12.70;;
39176;SDS011;24904;52.208;21.192;2023-02-28T17:38:25;17.80;;;9.10;;
39176;SDS011;24904;52.208;21.192;2023-02-28T17:43:30;20.30;;;10.20;;
39176;SDS011;24904;52.208;21.192;2023-02-28T17:48:35;22.50;;;11.40;;
39176;SDS011;24904;52.208;21.192;2023-02-28T17:53:40;19.50;;;11.90;;
39176;SDS011;24904;52.208;21.192;2023-02-28T17:58:46;27.10;;;15.40;;
39176;SDS011;24904;52.208;21.192;2023-02-28T18:03:51;32.60;;;13.90;;
39176;SDS011;24904;52.208;21.192;2023-02-28T18:08:57;31.30;;;12.30;;
39176;SDS011;24904;52.208;21.192;2023-02-28T18:14:02;31.90;;;14.10;;
39176;SDS011;24904;52.208;21.192;2023-02-28T18:19:07;36.40;;;16.00;;
39176;SDS011;24904;52.208;21.192;2023-02-28T18:24:16;38.40;;;14.60;;
39176;SDS011;24904;52.208;21.192;2023-02-28T18:29:24;46.90;;;15.30;;
39176;SDS011;24904;52.208;21.192;2023-02-28T18:34:30;36.80;;;17.40;;
39176;SDS011;24904;52.208;21.192;2023-02-28T18:39:38;41.20;;;17.00;;
39176;SDS011;24904;52.208;21.192;2023-02-28T18:44:43;32.30;;;14.60;;
39176;SDS011;24904;52.208;21.192;2023-02-28T18:49:48;31.80;;;15.70;;
39176;SDS011;24904;52.208;21.192;2023-02-28T18:54:53;39.60;;;16.40;;
39176;SDS011;24904;52.208;21.192;2023-02-28T18:59:59;29.80;;;15.30;;
39176;SDS011;24904;52.208;21.192;2023-02-28T19:05:04;31.90;;;15.30;;
39176;SDS011;24904;52.208;21.192;2023-02-28T19:10:12;38.60;;;15.40;;
39176;SDS011;24904;52.208;21.192;2023-02-28T19:15:19;35.70;;;16.00;;
39176;SDS011;24904;52.208;21.192;2023-02-28T19:20:24;30.80;;;15.50;;
39176;SDS011;24904;52.208;21.192;2023-02-28T19:25:29;32.00;;;16.00;;
39176;SDS011;24904;52.208;21.192;2023-02-28T19:30:34;25.40;;;14.20;;
39176;SDS011;24904;52.208;21.192;2023-02-28T19:35:40;27.30;;;15.30;;
39176;SDS011;24904;52.208;21.192;2023-02-28T19:40:45;26.00;;;14.40;;
39176;SDS011;24904;52.208;21.192;2023-02-28T19:45:50;26.30;;;13.80;;
39176;SDS011;24904;52.208;21.192;2023-02-28T19:50:59;25.30;;;14.80;;
39176;SDS011;24904;52.208;21.192;2023-02-28T19:56:06;34.70;;;15.40;;
39176;SDS011;24904;52.208;21.192;2023-02-28T20:01:12;34.00;;;17.40;;
39176;SDS011;24904;52.208;21.192;2023-02-28T20:06:19;32.00;;;17.00;;
39176;SDS011;24904;52.208;21.192;2023-02-28T20:11:24;32.30;;;16.10;;
39176;SDS011;24904;52.208;21.192;2023-02-28T20:16:29;30.50;;;17.80;;
39176;SDS011;24904;52.208;21.192;2023-02-28T20:21:34;29.10;;;16.60;;
39176;SDS011;24904;52.208;21.192;2023-02-28T20:26:39;32.00;;;18.80;;
39176;SDS011;24904;52.208;21.192;2023-02-28T20:31:44;30.80;;;17.70;;
39176;SDS011;24904;52.208;21.192;2023-02-28T20:45:22;33.50;;;17.80;;
39176;SDS011;24904;52.208;21.192;2023-02-28T20:50:25;30.30;;;17.40;;
39176;SDS011;24904;52.208;21.192;2023-02-28T20:55:28;30.30;;;16.00;;
39176;SDS011;24904;52.208;21.192;2023-02-28T21:00:31;31.10;;;17.10;;
39176;SDS011;24904;52.208;21.192;2023-02-28T21:05:34;30.60;;;16.20;;
39176;SDS011;24904;52.208;21.192;2023-02-28T21:10:37;33.20;;;17.50;;
39176;SDS011;24904;52.208;21.192;2023-02-28T21:15:40;39.20;;;19.10;;
39176;SDS011;24904;52.208;21.192;2023-02-28T21:20:43;29.70;;;16.00;;
39176;SDS011;24904;52.208;21.192;2023-02-28T21:25:46;30.10;;;16.70;;
39176;SDS011;24904;52.208;21.192;2023-02-28T21:30:49;30.00;;;16.90;;
39176;SDS011;24904;52.208;21.192;2023-02-28T21:35:59;27.40;;;16.30;;
39176;SDS011;24904;52.208;21.192;2023-02-28T21:41:04;34.00;;;16.80;;
39176;SDS011;24904;52.208;21.192;2023-02-28T21:46:09;31.60;;;15.80;;
39176;SDS011;24904;52.208;21.192;2023-02-28T21:51:17;29.00;;;16.30;;
39176;SDS011;24904;52.208;21.192;2023-02-28T21:56:22;27.00;;;14.90;;
39176;SDS011;24904;52.208;21.192;2023-02-28T22:01:27;28.70;;;16.40;;
39176;SDS011;24904;52.208;21.192;2023-02-28T22:06:32;35.10;;;18.00;;
39176;SDS011;24904;52.208;21.192;2023-02-28T22:11:37;31.90;;;16.40;;
39176;SDS011;24904;52.208;21.192;2023-02-28T22:16:40;34.00;;;18.40;;
39176;SDS011;24904;52.208;21.192;2023-02-28T22:21:45;30.50;;;16.30;;
39176;SDS011;24904;52.208;21.192;2023-02-28T22:26:48;29.40;;;16.60;;
39176;SDS011;24904;52.208;21.192;2023-02-28T22:31:51;30.40;;;16.30;;
39176;SDS011;24904;52.208;21.192;2023-02-28T22:36:54;31.50;;;16.80;;
39176;SDS011;24904;52.208;21.192;2023-02-28T22:41:58;36.90;;;19.90;;
39176;SDS011;24904;52.208;21.192;2023-02-28T22:47:01;40.50;;;19.50;;
39176;SDS011;24904;52.208;21.192;2023-02-28T22:52:04;43.30;;;23.70;;
39176;SDS011;24904;52.208;21.192;2023-02-28T22:57:07;56.80;;;26.40;;
39176;SDS011;24904;52.208;21.192;2023-02-28T23:02:10;64.00;;;28.30;;
39176;SDS011;24904;52.208;21.192;2023-02-28T23:07:13;45.40;;;22.00;;
39176;SDS011;24904;52.208;21.192;2023-02-28T23:12:16;45.50;;;21.40;;
39176;SDS011;24904;52.208;21.192;2023-02-28T23:17:19;39.50;;;19.10;;
39176;SDS011;24904;52.208;21.192;2023-02-28T23:22:23;41.20;;;20.00;;
39176;SDS011;24904;52.208;21.192;2023-02-28T23:27:26;37.30;;;19.80;;
39176;SDS011;24904;52.208;21.192;2023-02-28T23:32:29;39.20;;;19.90;;
39176;SDS011;24904;52.208;21.192;2023-02-28T23:37:32;44.70;;;21.60;;
39176;SDS011;24904;52.208;21.192;2023-02-28T23:42:35;44.90;;;20.80;;
39176;SDS011;24904;52.208;21.192;2023-02-28T23:47:39;39.10;;;19.50;;
39176;SDS011;24904;52.208;21.192;2023-02-28T23:52:42;40.50;;;19.80;;
39176;SDS011;24904;52.208;21.192;2023-02-28T23:57:45;45.90;;;23.20;;
